Time;durP1;ratioP1;P1;durP2;ratioP2;P2;SDS_P1;SDS_P2;PMS_P1;PMS_P2;Temp;Humidity;BMP_temperature;BMP_pressure;BME280_temperature;BME280_humidity;BME280_pressure;Samples;Min_cycle;Max_cycle;Signal;HPM_P1;HPM_P2
2022/04/14 00:04:19;;;;;;;14.10;5.18;;;;;;;11.72;65.67;96593.22;10332790;28;20197;-58
2022/04/14 00:09:20;;;;;;;11.02;6.03;;;;;;;11.62;66.78;96608.31;10331642;28;20210;-57
2022/04/14 00:14:20;;;;;;;9.50;5.23;;;;;;;11.67;66.45;96594.69;10332207;28;20758;-54
2022/04/14 00:19:20;;;;;;;10.67;5.73;;;;;;;11.29;68.01;96623.25;10331462;28;20205;-55
2022/04/14 00:24:21;;;;;;;8.43;5.23;;;;;;;11.81;65.77;96585.31;10331558;28;20196;-54
2022/04/14 00:29:21;;;;;;;11.63;5.45;;;;;;;11.90;65.58;96590.41;10331409;28;20209;-54
2022/04/14 00:34:22;;;;;;;11.50;6.40;;;;;;;12.00;65.46;96577.09;10330947;28;20689;-55
2022/04/14 00:39:22;;;;;;;10.90;6.15;;;;;;;12.05;65.29;96589.72;10330057;28;20723;-54
2022/04/14 00:44:22;;;;;;;10.80;5.57;;;;;;;11.88;65.31;96581.88;10330647;28;20280;-54
2022/04/14 00:49:23;;;;;;;11.40;5.77;;;;;;;11.93;65.58;96579.59;10329833;28;20260;-54
2022/04/14 00:54:23;;;;;;;15.55;5.82;;;;;;;11.74;65.93;96595.69;10330433;28;20214;-55
2022/04/14 00:59:24;;;;;;;13.55;5.32;;;;;;;11.59;66.66;96603.41;10329524;28;20271;-55
2022/04/14 01:04:25;;;;;;;8.40;5.55;;;;;;;11.41;67.33;96606.22;10329962;28;20181;-55
2022/04/14 01:09:26;;;;;;;8.90;5.07;;;;;;;11.42;67.69;96600.81;10329138;28;20263;-54
2022/04/14 01:14:34;;;;;;;11.33;5.97;;;;;;;11.36;68.33;96603.25;10329877;28;20281;-53
2022/04/14 01:19:36;;;;;;;15.90;5.70;;;;;;;10.97;69.76;96632.72;10329536;28;20222;-54
2022/04/14 01:24:36;;;;;;;14.67;5.50;;;;;;;10.93;69.56;96626.97;10329066;28;20186;-53
2022/04/14 01:29:37;;;;;;;7.90;5.33;;;;;;;11.01;69.75;96626.16;10328067;28;20579;-53
2022/04/14 01:34:37;;;;;;;8.10;4.73;;;;;;;10.96;69.86;96628.44;10328846;28;20257;-55
2022/04/14 01:39:37;;;;;;;10.67;5.17;;;;;;;10.76;70.48;96647.06;10329098;28;20763;-54
2022/04/14 01:44:38;;;;;;;12.27;5.70;;;;;;;10.87;69.99;96630.22;10329090;28;20190;-55
2022/04/14 01:49:38;;;;;;;14.20;5.87;;;;;;;11.13;68.76;96608.31;10379034;22;20237;-51
2022/04/14 01:54:38;;;;;;;10.33;5.57;;;;;;;11.06;68.99;96603.72;10369078;28;20232;-51
2022/04/14 01:59:39;;;;;;;10.87;5.87;;;;;;;10.89;69.81;96617.81;10366933;28;20292;-57
2022/04/14 02:04:39;;;;;;;17.77;6.17;;;;;;;10.54;70.98;96643.25;10367123;28;20189;-54
2022/04/14 02:09:39;;;;;;;10.80;5.47;;;;;;;10.48;71.43;96652.53;10368208;28;20219;-55
2022/04/14 02:14:41;;;;;;;10.50;6.00;;;;;;;10.31;72.23;96659.47;10368335;28;20261;-53
2022/04/14 02:19:41;;;;;;;10.40;5.63;;;;;;;10.31;72.38;96656.84;10368558;28;20209;-55
2022/04/14 02:24:42;;;;;;;13.20;6.20;;;;;;;10.39;71.57;96648.25;10368302;28;20197;-52
2022/04/14 02:29:43;;;;;;;12.87;6.40;;;;;;;10.27;72.65;96650.28;10368437;28;20371;-53
2022/04/14 02:34:43;;;;;;;11.33;5.57;;;;;;;10.36;71.51;96643.31;10368220;28;20217;-50
2022/04/14 02:39:44;;;;;;;13.70;5.57;;;;;;;10.31;71.98;96641.13;10368008;28;20221;-51
2022/04/14 02:44:44;;;;;;;11.77;6.13;;;;;;;10.25;72.52;96652.25;10368225;28;20217;-51
2022/04/14 02:49:44;;;;;;;11.00;5.93;;;;;;;10.23;72.74;96654.19;10366981;28;20299;-55
2022/04/14 02:54:45;;;;;;;9.00;5.63;;;;;;;10.27;71.82;96652.88;10367958;28;20218;-51
2022/04/14 02:59:45;;;;;;;14.83;5.77;;;;;;;10.30;71.81;96644.72;10368773;28;20271;-53
2022/04/14 03:04:45;;;;;;;9.50;5.20;;;;;;;10.22;72.43;96659.59;10374771;28;20186;-53
2022/04/14 03:09:46;;;;;;;10.30;5.20;;;;;;;9.92;74.15;96678.22;10375477;28;20243;-53
2022/04/14 03:14:47;;;;;;;8.90;5.07;;;;;;;9.82;74.20;96683.53;10374728;28;20225;-53
2022/04/14 03:19:48;;;;;;;10.67;5.80;;;;;;;9.50;75.70;96683.28;10374859;28;20221;-53
2022/04/14 03:24:48;;;;;;;10.23;5.87;;;;;;;9.72;74.60;96679.38;10374663;28;20232;-52
2022/04/14 03:29:49;;;;;;;9.93;4.97;;;;;;;9.91;73.65;96670.53;10374256;28;20213;-54
2022/04/14 03:34:49;;;;;;;12.17;5.83;;;;;;;9.72;74.12;96672.34;10374435;28;20364;-51
2022/04/14 03:39:49;;;;;;;9.50;5.40;;;;;;;9.42;76.04;96686.66;10373739;28;20213;-54
2022/04/14 03:44:50;;;;;;;8.33;4.90;;;;;;;9.10;78.66;96695.81;10373963;28;20189;-53
2022/04/14 03:49:50;;;;;;;9.47;4.87;;;;;;;8.97;78.88;96695.34;10372968;28;20248;-53
2022/04/14 03:54:50;;;;;;;10.83;5.20;;;;;;;9.00;78.45;96689.84;10373347;28;20239;-53
2022/04/14 03:59:51;;;;;;;11.47;5.63;;;;;;;8.81;79.42;96696.00;10373338;28;20213;-53
2022/04/14 04:04:51;;;;;;;9.37;4.90;;;;;;;8.50;81.24;96698.88;10373074;28;20457;-53
2022/04/14 04:09:52;;;;;;;11.50;5.20;;;;;;;8.50;81.46;96701.47;10373530;28;20295;-51
2022/04/14 04:14:52;;;;;;;8.90;4.70;;;;;;;8.51;81.10;96697.91;10372470;28;20606;-54
2022/04/14 04:19:53;;;;;;;12.23;5.47;;;;;;;8.48;81.53;96701.63;10372640;28;20651;-57
2022/04/14 04:24:53;;;;;;;11.40;5.37;;;;;;;8.35;82.32;96698.50;10372558;28;20217;-55
2022/04/14 04:29:54;;;;;;;11.50;5.43;;;;;;;8.16;83.61;96705.44;10372136;28;20278;-54
2022/04/14 04:34:54;;;;;;;10.37;5.33;;;;;;;7.56;87.30;96695.22;10372121;28;20316;-50
2022/04/14 04:39:55;;;;;;;7.83;5.27;;;;;;;7.73;89.32;96688.47;10371947;28;20271;-54
2022/04/14 04:44:55;;;;;;;14.07;5.07;;;;;;;7.85;89.54;96689.97;10372108;28;20181;-53
2022/04/14 04:49:55;;;;;;;7.63;4.70;;;;;;;7.77;91.18;96689.03;10371182;28;20323;-53
2022/04/14 04:54:56;;;;;;;8.33;5.00;;;;;;;7.79;92.92;96681.88;10371277;28;20225;-52
2022/04/14 04:59:56;;;;;;;9.00;5.50;;;;;;;7.86;92.12;96689.00;10371110;28;20213;-58
2022/04/14 05:04:57;;;;;;;10.90;5.30;;;;;;;7.79;93.52;96693.13;10340603;28;20197;-57
2022/04/14 05:09:57;;;;;;;8.27;5.03;;;;;;;7.90;92.82;96693.94;10330801;28;20727;-56
2022/04/14 05:14:58;;;;;;;6.43;4.37;;;;;;;8.03;92.74;96691.84;10330443;28;20696;-51
2022/04/14 05:19:58;;;;;;;9.17;4.93;;;;;;;8.37;90.81;96696.56;10330329;28;20659;-53
2022/04/14 05:25:01;;;;;;;6.63;4.23;;;;;;;8.67;87.94;96692.09;10329577;28;20546;-56
2022/04/14 05:30:03;;;;;;;5.73;4.10;;;;;;;8.76;88.25;96699.06;10335233;28;20205;-53
2022/04/14 05:35:04;;;;;;;9.33;4.67;;;;;;;9.10;86.04;96691.41;10368029;28;20307;-52
2022/04/14 05:40:05;;;;;;;7.10;4.27;;;;;;;9.57;83.56;96679.94;10376593;28;20729;-52
2022/04/14 05:45:06;;;;;;;5.73;4.23;;;;;;;10.09;80.41;96668.69;10404922;28;20271;-54
2022/04/14 05:50:07;;;;;;;11.23;4.60;;;;;;;10.45;78.28;96662.53;10410397;28;20331;-51
2022/04/14 05:55:08;;;;;;;8.27;3.77;;;;;;;11.22;76.16;96646.69;10410879;28;20354;-55
2022/04/14 06:00:09;;;;;;;5.53;4.07;;;;;;;11.44;72.86;96624.25;10387249;28;20216;-56
2022/04/14 06:05:09;;;;;;;12.80;4.00;;;;;;;12.04;71.53;96625.69;10371545;28;20659;-59
2022/04/14 06:10:09;;;;;;;6.20;3.58;;;;;;;11.99;71.30;96611.41;10366720;28;20271;-55
2022/04/14 06:15:10;;;;;;;6.70;3.67;;;;;;;12.37;71.38;96627.38;10366615;28;20315;-52
2022/04/14 06:20:11;;;;;;;6.53;3.35;;;;;;;13.08;68.95;96608.94;10366040;28;20287;-54
2022/04/14 06:25:13;;;;;;;12.50;3.80;;;;;;;13.87;65.47;96577.91;10366365;28;20193;-53
2022/04/14 06:30:15;;;;;;;5.38;3.75;;;;;;;14.06;64.37;96573.91;10366577;28;20232;-52
2022/04/14 06:35:16;;;;;;;5.25;3.10;;;;;;;14.79;61.90;96536.25;10368951;28;20227;-60
2022/04/14 06:40:16;;;;;;;3.92;3.00;;;;;;;14.70;61.20;96529.47;10374177;28;20219;-55
2022/04/14 06:46:03;;;;;;;5.53;3.05;;;;;;;15.32;60.61;96546.50;10364957;28;20186;-59
2022/04/14 06:51:03;;;;;;;7.80;3.05;;;;;;;16.62;56.90;96483.38;10363677;28;20205;-58
2022/04/14 06:56:05;;;;;;;7.72;2.92;;;;;;;17.40;54.85;96469.59;10365295;28;20217;-60
2022/04/14 07:01:05;;;;;;;4.88;3.30;;;;;;;17.68;55.15;96491.56;10371076;28;20194;-59
2022/04/14 07:06:06;;;;;;;9.38;4.65;;;;;;;18.24;54.85;96506.09;10370302;28;20184;-61
2022/04/14 07:11:06;;;;;;;14.70;6.50;;;;;;;18.36;52.25;96452.22;10371634;28;20551;-59
2022/04/14 07:16:07;;;;;;;10.18;6.18;;;;;;;17.08;54.25;96485.31;10370570;28;20225;-58
2022/04/14 07:21:07;;;;;;;13.18;7.25;;;;;;;17.65;52.68;96469.75;10371260;28;20189;-57
2022/04/14 07:26:07;;;;;;;14.95;8.07;;;;;;;19.37;49.59;96428.44;10369363;28;20189;-56
2022/04/14 07:31:08;;;;;;;13.98;7.75;;;;;;;19.50;49.49;96439.94;10337883;28;20205;-57
2022/04/14 07:36:08;;;;;;;18.13;8.23;;;;;;;20.69;47.22;96412.94;10329311;28;20285;-60
2022/04/14 07:41:09;;;;;;;13.93;8.23;;;;;;;18.52;52.36;96493.34;10349137;28;20205;-56
2022/04/14 07:46:09;;;;;;;15.40;8.38;;;;;;;18.91;52.48;96508.44;10362260;28;20204;-60
2022/04/14 07:51:09;;;;;;;18.85;9.13;;;;;;;18.26;52.87;96496.13;10369545;28;20221;-54
2022/04/14 07:56:10;;;;;;;15.50;9.00;;;;;;;17.99;53.42;96520.88;10367593;28;20221;-58
2022/04/14 08:01:10;;;;;;;15.75;9.40;;;;;;;17.20;56.10;96564.94;10382637;22;20759;-59
2022/04/14 08:06:10;;;;;;;25.67;9.55;;;;;;;18.92;52.67;96515.41;10385831;28;20692;-60
2022/04/14 08:11:11;;;;;;;17.25;9.82;;;;;;;17.71;56.69;96599.78;10412171;28;20287;-61
2022/04/14 08:16:11;;;;;;;14.75;9.45;;;;;;;20.16;51.58;96526.19;10412091;28;20216;-62
2022/04/14 08:21:11;;;;;;;14.50;8.75;;;;;;;21.87;47.17;96457.50;10412419;28;20295;-59
2022/04/14 08:26:12;;;;;;;17.73;9.07;;;;;;;22.29;46.14;96451.13;10411422;28;20199;-62
2022/04/14 08:31:14;;;;;;;17.80;10.40;;;;;;;21.85;47.95;96495.06;10399261;28;20225;-60
2022/04/14 08:36:15;;;;;;;19.67;11.02;;;;;;;21.97;47.42;96489.69;10369349;28;20311;-62
2022/04/14 08:41:19;;;;;;;15.18;10.93;;;;;;;21.97;48.40;96510.22;10370942;28;20213;-63
2022/04/14 08:46:20;;;;;;;17.23;11.00;;;;;;;23.37;44.24;96442.28;10379673;28;20934;-65
2022/04/14 08:51:21;;;;;;;14.07;10.85;;;;;;;22.93;46.96;96491.81;10369236;28;20225;-62
2022/04/14 08:56:22;;;;;;;25.25;12.77;;;;;;;23.47;44.75;96450.47;10369672;28;20229;-59
2022/04/14 09:01:26;;;;;;;15.73;11.90;;;;;;;22.94;46.48;96479.28;10368048;28;20264;-63
2022/04/14 09:06:28;;;;;;;17.73;13.73;;;;;;;21.45;49.17;96535.69;10374804;28;20558;-63
2022/04/14 09:11:30;;;;;;;20.08;14.52;;;;;;;22.94;46.92;96522.00;10398504;28;20683;-62
2022/04/14 09:16:32;;;;;;;18.20;12.77;;;;;;;24.71;42.77;96458.97;10382332;28;20228;-61
2022/04/14 09:21:34;;;;;;;24.42;14.98;;;;;;;24.28;43.01;96452.63;10377530;28;20224;-61
2022/04/14 09:26:39;;;;;;;33.30;16.05;;;;;;;23.40;46.09;96524.69;10367545;28;20193;-62
2022/04/14 09:31:48;;;;;;;23.75;15.82;;;;;;;23.78;44.33;96467.78;10367167;28;20240;-65
2022/04/14 09:37:05;;;;;;;24.77;15.73;;;;;;;23.38;45.95;96522.25;10387585;28;20234;-65
2022/04/14 09:42:11;;;;;;;28.50;17.35;;;;;;;24.24;43.13;96475.59;10409440;28;20193;-62
2022/04/14 09:47:21;;;;;;;35.38;17.52;;;;;;;21.67;46.09;96495.16;10408726;28;20212;-59
2022/04/14 09:52:21;;;;;;;27.83;16.77;;;;;;;22.83;45.72;96517.56;10403535;28;20192;-61
2022/04/14 09:57:22;;;;;;;26.05;16.30;;;;;;;24.08;43.83;96498.69;10365546;28;20739;-63
2022/04/14 10:02:22;;;;;;;27.35;15.90;;;;;;;25.08;43.73;96525.28;10367077;28;21023;-60
2022/04/14 10:07:23;;;;;;;29.40;18.40;;;;;;;23.06;45.99;96535.31;10371002;28;20206;-61
2022/04/14 10:12:23;;;;;;;29.23;17.73;;;;;;;23.93;43.63;96507.31;10392901;28;20255;-61
2022/04/14 10:17:28;;;;;;;35.83;19.02;;;;;;;22.54;47.47;96562.94;10396043;28;20228;-61
2022/04/14 10:22:28;;;;;;;37.20;19.50;;;;;;;22.71;48.12;96590.53;10391929;28;20200;-63
2022/04/14 10:27:30;;;;;;;30.70;19.58;;;;;;;24.67;43.37;96516.00;10393617;28;20204;-62
2022/04/14 10:32:30;;;;;;;34.20;19.17;;;;;;;24.43;43.54;96531.53;10393819;28;20267;-63
2022/04/14 10:37:36;;;;;;;38.03;20.45;;;;;;;23.14;45.48;96538.44;10379978;28;20698;-60
2022/04/14 10:42:36;;;;;;;32.38;18.02;;;;;;;23.28;43.89;96503.41;10390532;28;20219;-60
2022/04/14 10:47:43;;;;;;;30.58;19.05;;;;;;;23.25;45.50;96560.00;10384162;28;20205;-63
2022/04/14 10:53:00;;;;;;;31.05;18.10;;;;;;;24.44;43.67;96541.16;10375128;28;20200;-60
2022/04/14 10:58:01;;;;;;;28.70;18.77;;;;;;;24.14;43.38;96543.19;10372243;28;20229;-64
2022/04/14 11:03:08;;;;;;;31.05;18.90;;;;;;;23.85;45.12;96556.69;10391704;28;20570;-61
2022/04/14 11:08:22;;;;;;;28.48;19.17;;;;;;;21.92;47.21;96561.59;10407707;28;20221;-62
2022/04/14 11:13:52;;;;;;;28.00;17.17;;;;;;;22.70;47.18;96594.25;10383552;28;20201;-64
2022/04/14 11:19:24;;;;;;;28.38;17.17;;;;;;;21.40;47.58;96585.41;10370010;28;20237;-62
2022/04/14 11:24:36;;;;;;;26.35;14.45;;;;;;;22.12;46.23;96577.25;10370638;28;20272;-63
2022/04/14 11:29:38;;;;;;;28.77;16.77;;;;;;;21.20;47.11;96560.69;10372822;28;20727;-62
2022/04/14 11:34:40;;;;;;;22.48;13.88;;;;;;;21.56;47.74;96611.41;10372589;28;20235;-60
2022/04/14 11:39:42;;;;;;;21.00;14.85;;;;;;;22.86;45.37;96591.88;10372593;28;20303;-63
2022/04/14 11:44:42;;;;;;;22.42;13.80;;;;;;;23.51;44.01;96566.59;10371622;28;20208;-62
2022/04/14 11:49:42;;;;;;;25.15;15.07;;;;;;;24.19;42.72;96550.47;10372195;28;20224;-60
2022/04/14 11:54:45;;;;;;;23.15;14.25;;;;;;;24.11;42.30;96537.53;10372050;28;20316;-63
2022/04/14 11:59:48;;;;;;;27.27;14.95;;;;;;;22.65;44.20;96550.59;10371676;28;20892;-62
2022/04/14 12:04:53;;;;;;;19.90;13.52;;;;;;;22.30;44.33;96541.63;10375940;28;20193;-63
2022/04/14 12:10:04;;;;;;;17.65;12.45;;;;;;;22.48;43.75;96540.69;10371861;28;20543;-61
2022/04/14 12:15:05;;;;;;;17.20;11.82;;;;;;;22.50;44.75;96554.59;10370180;28;20997;-59
2022/04/14 12:20:06;;;;;;;15.80;11.15;;;;;;;22.96;44.32;96586.72;10370220;28;20316;-61
2022/04/14 12:25:10;;;;;;;13.20;10.00;;;;;;;24.05;42.57;96555.38;10378694;28;20185;-61
2022/04/14 12:30:14;;;;;;;12.85;9.40;;;;;;;23.80;43.38;96577.22;10368398;28;20213;-62
2022/04/14 12:35:37;;;;;;;14.50;9.32;;;;;;;23.32;45.53;96630.97;10367837;28;20344;-63
2022/04/14 12:40:37;;;;;;;12.93;9.90;;;;;;;21.84;48.01;96625.97;10365153;28;20296;-62
2022/04/14 12:45:38;;;;;;;16.10;9.82;;;;;;;23.53;45.87;96639.34;10370467;28;20185;-63
2022/04/14 12:50:38;;;;;;;16.98;9.88;;;;;;;24.49;43.93;96600.94;10369187;28;20213;-62
2022/04/14 12:55:39;;;;;;;19.58;11.00;;;;;;;23.62;45.46;96605.81;10370050;28;20237;-62
2022/04/14 13:00:40;;;;;;;15.73;11.23;;;;;;;22.69;48.04;96654.03;10370112;28;20779;-60
2022/04/14 13:05:44;;;;;;;17.58;11.95;;;;;;;21.86;49.24;96655.88;10378726;28;20663;-61
2022/04/14 13:10:48;;;;;;;14.82;10.65;;;;;;;21.46;52.05;96726.56;10407092;28;20213;-60
2022/04/14 13:15:51;;;;;;;17.75;10.30;;;;;;;20.96;53.63;96754.22;10390281;28;20798;-60
2022/04/14 13:20:51;;;;;;;14.20;9.10;;;;;;;21.00;54.00;96760.72;10367251;28;20291;-61
2022/04/14 13:25:52;;;;;;;11.80;7.93;;;;;;;20.94;54.53;96760.81;10369154;28;20200;-61
2022/04/14 13:30:52;;;;;;;11.48;7.25;;;;;;;21.03;54.40;96762.94;10368909;28;20248;-60
2022/04/14 13:35:52;;;;;;;11.77;6.90;;;;;;;20.04;57.15;96797.34;10368795;28;20232;-61
2022/04/14 13:40:53;;;;;;;11.65;7.25;;;;;;;20.58;55.33;96763.19;10368026;28;20229;-61
2022/04/14 13:45:53;;;;;;;7.80;6.15;;;;;;;20.47;55.68;96770.03;10367286;28;20276;-63
2022/04/14 13:50:54;;;;;;;7.80;5.78;;;;;;;20.75;56.58;96794.56;10365645;28;20241;-61
2022/04/14 13:55:55;;;;;;;10.82;5.55;;;;;;;20.99;55.04;96761.75;10372936;28;20217;-62
2022/04/14 14:00:55;;;;;;;8.73;5.43;;;;;;;20.78;55.05;96749.72;10413391;22;20286;-62
2022/04/14 14:05:57;;;;;;;8.48;4.97;;;;;;;21.33;53.47;96735.56;10490236;28;20556;-58
2022/04/14 14:10:57;;;;;;;10.93;5.60;;;;;;;20.72;55.11;96763.91;10491452;28;20298;-60
2022/04/14 14:15:58;;;;;;;6.00;5.30;;;;;;;21.43;53.63;96731.53;10490861;28;20697;-62
2022/04/14 14:20:58;;;;;;;9.18;5.10;;;;;;;21.22;54.18;96740.81;10491200;28;20222;-60
2022/04/14 14:25:59;;;;;;;5.95;4.32;;;;;;;19.97;58.47;96809.88;10489885;28;20195;-61
2022/04/14 14:30:59;;;;;;;6.05;4.20;;;;;;;19.75;58.60;96810.19;10490355;28;20211;-60
2022/04/14 14:35:59;;;;;;;11.65;3.83;;;;;;;20.11;58.03;96799.97;10491135;28;20230;-60
2022/04/14 14:41:02;;;;;;;8.50;4.40;;;;;;;21.34;55.13;96761.16;10490144;28;20802;-61
2022/04/14 14:46:02;;;;;;;7.70;4.15;;;;;;;22.09;51.61;96703.91;10490889;28;20180;-60
2022/04/14 14:51:04;;;;;;;5.63;3.50;;;;;;;23.39;48.76;96657.56;10490097;28;20219;-61
2022/04/14 14:56:04;;;;;;;8.45;3.25;;;;;;;23.99;47.59;96650.03;10491497;28;20229;-61
2022/04/14 15:01:04;;;;;;;7.72;3.55;;;;;;;24.19;45.92;96625.44;10488160;28;20588;-62
2022/04/14 15:06:05;;;;;;;5.35;3.40;;;;;;;22.83;49.36;96677.81;10455752;28;20603;-61
2022/04/14 15:11:05;;;;;;;6.82;3.53;;;;;;;21.51;52.13;96712.59;10456527;28;20203;-62
2022/04/14 15:16:06;;;;;;;8.95;3.60;;;;;;;19.51;57.32;96794.94;10455596;28;20276;-60
2022/04/14 15:21:06;;;;;;;6.50;2.90;;;;;;;19.45;59.10;96835.63;10455726;28;20762;-60
2022/04/14 15:26:08;;;;;;;5.75;3.17;;;;;;;19.13;58.75;96822.28;10455281;28;20180;-61
2022/04/14 15:31:08;;;;;;;6.25;3.65;;;;;;;17.88;63.41;96892.53;10490079;28;20211;-62
2022/04/14 15:36:09;;;;;;;6.30;3.45;;;;;;;17.68;65.82;96888.97;10485114;28;20215;-64
2022/04/14 15:41:10;;;;;;;4.47;3.10;;;;;;;18.30;64.88;96873.88;10468170;28;20211;-62
2022/04/14 15:46:10;;;;;;;9.82;4.03;;;;;;;18.90;62.61;96855.41;10454330;28;20192;-62
2022/04/14 15:51:11;;;;;;;7.30;4.13;;;;;;;17.68;64.19;96865.94;10454327;28;20208;-63
2022/04/14 15:56:11;;;;;;;7.25;3.35;;;;;;;17.65;65.24;96872.44;10453931;28;20220;-62
2022/04/14 16:01:11;;;;;;;4.88;3.22;;;;;;;17.57;66.98;96885.88;10471615;28;20231;-63
2022/04/14 16:06:12;;;;;;;9.07;6.13;;;;;;;16.79;71.65;96887.78;10494805;28;20237;-62
2022/04/14 16:16:31;;;;;;;5.68;2.90;;;;;;;15.74;76.31;96896.03;10494823;28;20763;-60
2022/04/14 16:21:32;;;;;;;3.72;2.90;;;;;;;15.70;77.50;96897.44;10494345;28;20245;-61
2022/04/14 16:26:32;;;;;;;4.38;2.50;;;;;;;15.79;77.96;96895.53;10494179;28;20206;-62
2022/04/14 16:31:32;;;;;;;5.75;2.35;;;;;;;15.73;79.13;96909.44;10494091;28;20238;-63
2022/04/14 16:36:33;;;;;;;4.03;2.70;;;;;;;15.41;80.53;96912.28;10495055;28;20249;-63
2022/04/14 16:41:34;;;;;;;5.80;2.70;;;;;;;15.09;85.02;96906.34;10494905;28;20200;-63
2022/04/14 16:46:35;;;;;;;7.55;3.05;;;;;;;14.77;87.49;96915.38;10494199;28;20255;-60
2022/04/14 16:51:37;;;;;;;4.07;2.38;;;;;;;14.93;87.74;96924.97;10494714;28;20209;-63
2022/04/14 16:56:37;;;;;;;3.00;2.17;;;;;;;14.57;90.95;96918.47;10494050;28;20215;-63
2022/04/14 17:01:37;;;;;;;5.25;2.35;;;;;;;14.38;100.00;96932.13;10493854;28;20291;-62
2022/04/14 17:06:38;;;;;;;7.65;2.60;;;;;;;14.23;100.00;96938.16;10463232;28;20237;-62
2022/04/14 17:11:38;;;;;;;5.95;2.80;;;;;;;13.80;100.00;96939.50;10452421;28;20728;-59
2022/04/14 17:16:39;;;;;;;3.95;2.35;;;;;;;13.69;100.00;96945.97;10452522;28;20671;-61
2022/04/14 17:26:58;;;;;;;4.20;3.20;;;;;;;13.26;100.00;96927.84;10454324;28;20179;-61
2022/04/14 17:31:59;;;;;;;9.05;4.82;;;;;;;13.24;100.00;96934.25;10485273;28;20215;-61
2022/04/14 17:37:00;;;;;;;8.88;5.82;;;;;;;13.32;100.00;96942.09;10492977;28;20356;-61
2022/04/14 17:42:02;;;;;;;4.82;3.10;;;;;;;13.15;100.00;96934.25;10493196;28;20830;-61
2022/04/14 17:47:02;;;;;;;5.13;3.35;;;;;;;13.13;100.00;96933.59;10493032;28;20195;-61
2022/04/14 17:52:03;;;;;;;8.23;3.63;;;;;;;12.99;100.00;96948.25;10493223;28;20300;-62
2022/04/14 17:57:03;;;;;;;6.82;3.72;;;;;;;12.76;100.00;96947.28;10469297;28;20224;-61
2022/04/14 18:02:04;;;;;;;8.15;4.07;;;;;;;12.72;100.00;96940.69;10465626;28;20238;-60
2022/04/14 18:07:04;;;;;;;6.18;4.00;;;;;;;12.54;100.00;96954.00;10470271;28;20198;-61
2022/04/14 18:12:05;;;;;;;6.38;4.85;;;;;;;12.30;100.00;96952.97;10450630;28;20224;-59
2022/04/14 18:17:05;;;;;;;7.10;5.72;;;;;;;12.21;100.00;96961.81;10469651;28;20276;-61
2022/04/14 18:22:05;;;;;;;12.88;6.70;;;;;;;12.11;100.00;96969.81;10491573;28;20631;-61
2022/04/14 18:27:06;;;;;;;8.82;6.00;;;;;;;12.05;100.00;96971.31;10491081;28;20191;-62
2022/04/14 18:32:09;;;;;;;5.97;4.95;;;;;;;11.83;100.00;96977.91;10454913;28;20333;-62
2022/04/14 18:37:09;;;;;;;5.72;5.13;;;;;;;11.76;100.00;96988.22;10459435;28;20231;-61
2022/04/14 18:42:09;;;;;;;9.13;6.05;;;;;;;11.69;100.00;96997.69;10460147;28;20694;-62
2022/04/14 18:47:10;;;;;;;7.70;5.25;;;;;;;11.65;100.00;97003.41;10461733;28;20185;-62
2022/04/14 18:52:11;;;;;;;3.95;3.15;;;;;;;11.47;100.00;97000.84;10457427;28;20215;-57
2022/04/14 18:57:11;;;;;;;8.02;3.80;;;;;;;11.29;100.00;97004.34;10473067;28;20253;-61
2022/04/14 19:02:11;;;;;;;5.97;3.83;;;;;;;11.34;100.00;97019.63;10477234;28;20289;-60
2022/04/14 19:07:12;;;;;;;6.27;4.73;;;;;;;11.24;100.00;97004.00;10456995;28;20218;-61
2022/04/14 19:12:12;;;;;;;6.67;4.23;;;;;;;11.23;100.00;97023.31;10455611;28;20211;-61
2022/04/14 19:17:13;;;;;;;6.97;4.60;;;;;;;11.17;100.00;97019.50;10468692;28;20299;-57
2022/04/14 19:22:19;;;;;;;7.57;6.63;;;;;;;11.08;100.00;97017.78;10465900;28;20199;-61
2022/04/14 19:27:20;;;;;;;9.53;7.67;;;;;;;11.03;100.00;97015.63;10494807;28;20564;-60
2022/04/14 19:32:20;;;;;;;10.23;8.40;;;;;;;11.05;100.00;97033.84;10495244;28;20226;-62
2022/04/14 19:37:20;;;;;;;9.00;5.68;;;;;;;11.08;100.00;97038.78;10497229;28;20352;-61
2022/04/14 19:42:21;;;;;;;7.97;5.10;;;;;;;11.03;100.00;97039.22;10496313;28;20215;-59
2022/04/14 19:47:21;;;;;;;7.35;4.80;;;;;;;10.95;100.00;97041.78;10495408;28;20192;-61
2022/04/14 19:52:23;;;;;;;5.30;4.47;;;;;;;10.94;100.00;97034.06;10496539;28;20287;-60
2022/04/14 19:57:24;;;;;;;6.10;4.50;;;;;;;10.92;100.00;97025.53;10496214;28;20219;-61
2022/04/14 20:02:25;;;;;;;6.50;3.90;;;;;;;10.84;100.00;97029.75;10495626;28;20647;-58
2022/04/14 20:07:25;;;;;;;6.50;4.20;;;;;;;10.79;100.00;97026.72;10493817;22;20300;-56
2022/04/14 20:12:25;;;;;;;8.37;5.60;;;;;;;10.74;100.00;97036.84;10454827;28;20223;-58
2022/04/14 20:17:26;;;;;;;6.23;5.37;;;;;;;10.87;100.00;97032.06;10454762;28;20224;-55
2022/04/14 20:22:28;;;;;;;7.07;4.70;;;;;;;10.81;100.00;97037.06;10452035;28;20192;-55
2022/04/14 20:27:29;;;;;;;7.60;5.60;;;;;;;10.32;100.00;97039.97;10452943;28;20200;-55
2022/04/14 20:32:29;;;;;;;9.57;6.47;;;;;;;10.36;100.00;97033.50;10451335;28;20556;-57
2022/04/14 20:37:29;;;;;;;7.27;5.47;;;;;;;10.34;100.00;97038.88;10452455;28;20612;-59
2022/04/14 20:42:30;;;;;;;11.37;5.20;;;;;;;10.34;100.00;97033.66;10453990;28;20254;-58
2022/04/14 20:47:30;;;;;;;7.33;5.93;;;;;;;10.15;100.00;97033.72;10452906;28;20212;-58
2022/04/14 20:52:30;;;;;;;7.87;5.80;;;;;;;10.20;100.00;97038.53;10453187;28;20203;-58
2022/04/14 20:57:31;;;;;;;8.27;5.83;;;;;;;10.21;100.00;97037.56;10452685;28;20255;-59
2022/04/14 21:02:31;;;;;;;7.77;5.87;;;;;;;10.19;100.00;97035.09;10452508;28;20198;-58
2022/04/14 21:07:31;;;;;;;6.93;5.40;;;;;;;10.23;100.00;97031.22;10452013;28;20262;-55
2022/04/14 21:12:32;;;;;;;10.43;7.07;;;;;;;9.92;100.00;97041.97;10453031;28;20192;-57
2022/04/14 21:17:32;;;;;;;9.67;7.30;;;;;;;9.83;100.00;97055.91;10453194;28;20227;-55
2022/04/14 21:22:34;;;;;;;10.50;7.27;;;;;;;10.01;100.00;97050.72;10452813;28;20211;-58
2022/04/14 21:27:35;;;;;;;8.50;6.73;;;;;;;10.10;100.00;97054.28;10451649;28;20246;-55
2022/04/14 21:32:35;;;;;;;10.17;6.60;;;;;;;10.17;100.00;97052.75;10452974;28;20291;-59
2022/04/14 21:37:36;;;;;;;11.00;7.23;;;;;;;10.24;100.00;97050.34;10422026;28;20694;-59
2022/04/14 21:42:37;;;;;;;6.33;5.73;;;;;;;10.24;100.00;97050.34;10407217;28;20605;-58
2022/04/14 21:47:37;;;;;;;8.53;6.43;;;;;;;10.14;100.00;97039.94;10406600;28;20208;-58
2022/04/14 21:52:37;;;;;;;8.87;5.67;;;;;;;10.16;100.00;97043.22;10408322;28;20573;-57
2022/04/14 21:57:38;;;;;;;9.10;6.53;;;;;;;10.04;100.00;97041.78;10407897;28;20613;-58
2022/04/14 22:02:38;;;;;;;9.07;6.17;;;;;;;10.13;100.00;97046.16;10407290;28;20623;-60
2022/04/14 22:07:38;;;;;;;8.47;6.97;;;;;;;10.14;100.00;97042.56;10413019;28;20706;-60
2022/04/14 22:12:39;;;;;;;8.97;6.40;;;;;;;10.23;100.00;97041.69;10415677;28;20287;-61
2022/04/14 22:17:39;;;;;;;7.43;6.13;;;;;;;10.29;100.00;97041.09;10415341;28;20228;-61
2022/04/14 22:22:40;;;;;;;9.73;5.90;;;;;;;10.45;100.00;97034.44;10415614;28;20193;-60
2022/04/14 22:27:40;;;;;;;7.50;5.40;;;;;;;10.46;100.00;97023.81;10414816;28;20295;-58
2022/04/14 22:32:40;;;;;;;8.87;5.33;;;;;;;10.49;100.00;97014.81;10415094;28;20197;-60
2022/04/14 22:37:41;;;;;;;7.40;5.53;;;;;;;10.23;100.00;97020.75;10414439;28;20228;-61
2022/04/14 22:42:41;;;;;;;7.80;5.60;;;;;;;10.48;100.00;97019.22;10414736;28;20203;-58
2022/04/14 22:47:42;;;;;;;9.70;5.97;;;;;;;10.38;100.00;97017.66;10414658;28;20247;-60
2022/04/14 22:52:42;;;;;;;8.30;5.43;;;;;;;10.55;100.00;97014.25;10414166;28;20205;-56
2022/04/14 22:57:47;;;;;;;8.87;6.20;;;;;;;10.56;100.00;97008.00;10413979;28;20319;-60
2022/04/14 23:02:49;;;;;;;10.60;5.90;;;;;;;10.39;100.00;97008.81;10413136;28;20204;-58
2022/04/14 23:07:49;;;;;;;8.00;6.27;;;;;;;10.44;100.00;97012.63;10413466;28;20225;-61
2022/04/14 23:12:50;;;;;;;8.37;5.70;;;;;;;10.35;100.00;97016.97;10413290;28;20200;-61
2022/04/14 23:17:52;;;;;;;8.20;5.57;;;;;;;10.33;100.00;97005.81;10411583;28;20571;-59
2022/04/14 23:22:53;;;;;;;7.67;6.33;;;;;;;10.04;100.00;97011.19;10413283;28;20195;-56